Time;durP1;ratioP1;P1;durP2;ratioP2;P2;SDS_P1;SDS_P2;PMS_P1;PMS_P2;Temp;Humidity;BMP_temperature;BMP_pressure;BME280_temperature;BME280_humidity;BME280_pressure;Samples;Min_cycle;Max_cycle;Signal;HPM_P1;HPM_P2
2022/07/05 00:00:06;;;;;;;;;;;;;;;30.62;37.46;99060.97;4360904;32;34995;-94
2022/07/05 00:02:38;;;;;;;;;;;;;;;29.65;39.53;99066.75;4360011;32;33307;-95
2022/07/05 00:05:06;;;;;;;;;;;;;;;29.76;39.39;99067.75;4360958;32;34461;-91
2022/07/05 00:07:34;;;;;;;;;;;;;;;29.83;39.01;99068.19;4359488;32;34563;-91
2022/07/05 00:10:01;;;;;;;;;;;;;;;30.37;37.98;99064.50;4361078;32;34068;-92
2022/07/05 00:12:31;;;;;;;;;;;;;;;30.21;38.26;99062.91;4361204;32;34016;-91
2022/07/05 00:14:59;;;;;;;;;;;;;;;29.29;39.79;99070.91;4359998;32;33197;-93
2022/07/05 00:17:26;;;;;;;;;;;;;;;29.25;39.74;99058.72;4361163;32;34240;-92
2022/07/05 00:19:54;;;;;;;;;;;;;;;29.86;38.50;99056.44;4360792;32;34216;-92
2022/07/05 00:22:21;;;;;;;;;;;;;;;30.82;36.53;99036.31;4361185;32;33749;-92
2022/07/05 00:24:56;;;;;;;;;;;;;;;30.09;37.80;99044.16;4359480;32;34208;-92
2022/07/05 00:27:23;;;;;;;;;;;;;;;30.54;36.86;99034.75;4360824;32;34268;-92
2022/07/05 00:29:50;;;;;;;;;;;;;;;30.44;37.00;99034.53;4359418;32;33663;-89
2022/07/05 00:32:18;;;;;;;;;;;;;;;30.24;37.33;99030.59;4360913;32;33947;-93
2022/07/05 00:34:45;;;;;;;;;;;;;;;30.06;37.67;99024.69;4368904;32;34135;-91
2022/07/05 00:37:12;;;;;;;;;;;;;;;29.39;38.96;99025.72;4352836;32;34334;-93
2022/07/05 00:39:40;;;;;;;;;;;;;;;29.74;38.13;99026.94;4359567;32;33336;-92
2022/07/05 00:42:08;;;;;;;;;;;;;;;29.23;38.89;99015.22;4359476;32;34977;-95
2022/07/05 00:44:36;;;;;;;;;;;;;;;29.93;37.59;99021.19;4361010;32;35335;-93
2022/07/05 00:47:04;;;;;;;;;;;;;;;29.67;38.01;99024.78;4359632;32;35165;-94
2022/07/05 00:49:31;;;;;;;;;;;;;;;29.76;37.82;99019.66;4359424;32;34237;-94
2022/07/05 00:51:59;;;;;;;;;;;;;;;30.41;36.40;99016.03;4353590;32;34004;-94
2022/07/05 00:54:45;;;;;;;;;;;;;;;30.00;37.14;99011.78;4345508;33;34430;-94
2022/07/05 00:57:13;;;;;;;;;;;;;;;29.78;37.46;99020.41;4345819;33;34423;-94
2022/07/05 00:59:40;;;;;;;;;;;;;;;30.54;36.11;99029.41;4354441;32;34504;-93
2022/07/05 01:02:08;;;;;;;;;;;;;;;29.37;38.18;99017.84;4360440;32;34824;-93
2022/07/05 01:04:35;;;;;;;;;;;;;;;30.60;35.93;99020.06;4360180;32;34525;-95
2022/07/05 01:07:03;;;;;;;;;;;;;;;30.45;36.02;99016.66;4359292;32;34036;-94
2022/07/05 01:09:32;;;;;;;;;;;;;;;29.73;37.19;99017.19;4360084;32;33652;-95
2022/07/05 01:11:59;;;;;;;;;;;;;;;30.44;35.87;99018.47;4359204;32;34008;-93
2022/07/05 01:14:26;;;;;;;;;;;;;;;30.15;36.17;99019.66;4346090;32;35032;-95
2022/07/05 01:16:54;;;;;;;;;;;;;;;30.45;35.46;99014.84;4344122;33;35097;-92
2022/07/05 01:19:22;;;;;;;;;;;;;;;30.46;35.32;99021.94;4345771;33;33211;-91
2022/07/05 01:21:50;;;;;;;;;;;;;;;30.11;35.87;99016.34;4345805;33;33851;-91
2022/07/05 01:24:18;;;;;;;;;;;;;;;30.43;34.93;99018.59;4345400;33;34422;-90
2022/07/05 01:26:46;;;;;;;;;;;;;;;29.09;37.08;99010.78;4344286;33;34772;-92
2022/07/05 01:29:13;;;;;;;;;;;;;;;29.64;35.99;99008.94;4344845;32;34489;-94
2022/07/05 01:31:41;;;;;;;;;;;;;;;30.22;34.85;99007.59;4356180;32;33905;-93
2022/07/05 01:34:08;;;;;;;;;;;;;;;30.40;34.37;98997.44;4344174;33;34155;-94
2022/07/05 01:36:36;;;;;;;;;;;;;;;30.14;34.67;99004.59;4345402;33;34246;-94
2022/07/05 01:39:03;;;;;;;;;;;;;;;30.13;34.26;99005.56;4344049;33;33677;-95
2022/07/05 01:41:31;;;;;;;;;;;;;;;30.86;32.78;99005.66;4332670;33;34345;-94
2022/07/05 01:44:01;;;;;;;;;;;;;;;30.82;32.93;98998.84;4347519;32;33067;-94
2022/07/05 01:46:37;;;;;;;;;;;;;;;30.89;32.63;99002.78;4360514;32;35704;-94
2022/07/05 01:49:06;;;;;;;;;;;;;;;30.53;32.97;98999.12;4348986;32;32045;-91
2022/07/05 01:51:34;;;;;;;;;;;;;;;30.38;33.35;98999.34;4360971;32;33308;-94
2022/07/05 01:54:02;;;;;;;;;;;;;;;30.74;32.55;98990.53;4344584;32;33578;-96
2022/07/05 01:56:29;;;;;;;;;;;;;;;30.57;32.56;99001.53;4333757;33;32691;-94
2022/07/05 01:58:57;;;;;;;;;;;;;;;30.87;32.13;98996.66;4333539;33;32029;-93
2022/07/05 02:01:31;;;;;;;;;;;;;;;29.90;33.68;99010.69;4345754;33;33164;-92
2022/07/05 02:03:59;;;;;;;;;;;;;;;30.39;32.91;99012.63;4346911;33;34327;-92
2022/07/05 02:06:27;;;;;;;;;;;;;;;30.70;32.42;99015.75;4345636;33;34183;-93
2022/07/05 02:08:54;;;;;;;;;;;;;;;31.24;31.75;99004.66;4347261;32;32949;-92
2022/07/05 02:11:22;;;;;;;;;;;;;;;31.30;31.54;99004.22;4360360;32;33902;-93
2022/07/05 02:13:49;;;;;;;;;;;;;;;31.91;30.78;98999.56;4361690;32;35264;-94
2022/07/05 02:16:17;;;;;;;;;;;;;;;32.21;29.92;99003.50;4362174;32;34948;-93
2022/07/05 02:18:45;;;;;;;;;;;;;;;32.45;29.78;98993.50;4360753;32;33636;-94
2022/07/05 02:21:13;;;;;;;;;;;;;;;32.47;29.87;98982.66;4360415;32;33753;-93
2022/07/05 02:23:41;;;;;;;;;;;;;;;32.27;29.74;98983.38;4362039;32;35206;-93
2022/07/05 02:26:09;;;;;;;;;;;;;;;32.34;29.73;98979.22;4361520;32;34621;-93
2022/07/05 02:28:37;;;;;;;;;;;;;;;32.92;29.13;98979.87;4360668;32;33174;-93
2022/07/05 02:31:05;;;;;;;;;;;;;;;32.55;29.82;98982.03;4362007;32;34117;-93
2022/07/05 02:33:33;;;;;;;;;;;;;;;32.58;29.76;98984.47;4362013;32;33931;-94
2022/07/05 02:36:10;;;;;;;;;;;;;;;32.75;29.59;98986.63;4360262;32;33965;-93
2022/07/05 02:38:38;;;;;;;;;;;;;;;32.93;29.33;98992.34;4360351;32;33951;-93
2022/07/05 02:41:06;;;;;;;;;;;;;;;32.64;29.66;98994.72;4360293;32;34082;-92
2022/07/05 02:43:34;;;;;;;;;;;;;;;32.40;29.55;99003.75;4361536;32;34229;-93
2022/07/05 02:46:02;;;;;;;;;;;;;;;32.35;29.58;98997.88;4360557;32;34186;-92
2022/07/05 02:48:31;;;;;;;;;;;;;;;31.99;29.99;98998.97;4360061;32;32533;-91
2022/07/05 02:50:58;;;;;;;;;;;;;;;31.71;30.51;98997.56;4360257;32;33647;-91
2022/07/05 02:53:26;;;;;;;;;;;;;;;31.08;31.90;99002.28;4360665;32;34290;-89
2022/07/05 02:55:53;;;;;;;;;;;;;;;30.79;32.86;98999.06;4360563;32;34599;-93
2022/07/05 02:58:21;;;;;;;;;;;;;;;30.03;34.64;98995.50;4361879;32;33979;-94
2022/07/05 03:00:49;;;;;;;;;;;;;;;30.54;33.83;98990.13;4360625;32;34927;-93
2022/07/05 03:03:17;;;;;;;;;;;;;;;30.18;34.59;98985.56;4361216;32;34388;-94
2022/07/05 03:05:45;;;;;;;;;;;;;;;30.95;33.56;98982.72;4361234;32;35173;-94
2022/07/05 03:08:13;;;;;;;;;;;;;;;30.71;33.84;98985.34;4360677;32;34589;-95
2022/07/05 03:10:41;;;;;;;;;;;;;;;30.54;34.34;98990.13;4361485;32;34001;-94
2022/07/05 03:13:09;;;;;;;;;;;;;;;30.53;34.38;98999.12;4360517;32;34023;-93
2022/07/05 03:15:37;;;;;;;;;;;;;;;30.78;34.27;98989.31;4361601;32;35085;-93
2022/07/05 03:18:04;;;;;;;;;;;;;;;30.90;34.06;98991.09;4359806;32;33768;-94
2022/07/05 03:20:32;;;;;;;;;;;;;;;31.32;33.44;98977.31;4361382;32;34194;-93
2022/07/05 03:23:01;;;;;;;;;;;;;;;31.06;33.98;98976.56;4361492;32;34450;-94
2022/07/05 03:25:29;;;;;;;;;;;;;;;30.48;35.20;98973.66;4361464;32;34385;-93
2022/07/05 03:27:57;;;;;;;;;;;;;;;30.16;36.02;98991.97;4360277;32;33584;-94
2022/07/05 03:30:25;;;;;;;;;;;;;;;30.35;35.90;98995.09;4361267;32;34034;-92
2022/07/05 03:32:53;;;;;;;;;;;;;;;29.98;36.69;99002.13;4361162;32;34055;-94
2022/07/05 03:35:21;;;;;;;;;;;;;;;29.32;38.03;99010.13;4361189;32;35204;-93
2022/07/05 03:37:49;;;;;;;;;;;;;;;29.60;37.73;99019.00;4361440;32;33677;-88
2022/07/05 03:40:17;;;;;;;;;;;;;;;28.11;41.18;99028.50;4361251;32;33796;-91
2022/07/05 03:42:45;;;;;;;;;;;;;;;27.82;41.91;99024.09;4360234;32;35217;-92
2022/07/05 03:45:12;;;;;;;;;;;;;;;28.91;39.64;99023.50;4361127;32;34996;-90
2022/07/05 03:47:40;;;;;;;;;;;;;;;29.37;38.59;99027.66;4360629;32;33896;-92
2022/07/05 03:50:08;;;;;;;;;;;;;;;28.37;40.91;99031.38;4348055;32;33010;-92
2022/07/05 03:52:35;;;;;;;;;;;;;;;28.78;40.00;99038.56;4361290;32;35345;-93
2022/07/05 03:55:04;;;;;;;;;;;;;;;28.51;40.80;99042.03;4360247;32;35244;-92
2022/07/05 03:57:31;;;;;;;;;;;;;;;29.14;39.47;99038.06;4361125;32;34433;-93
2022/07/05 03:59:59;;;;;;;;;;;;;;;28.48;40.71;99044.03;4361282;32;34739;-92
2022/07/05 04:02:26;;;;;;;;;;;;;;;28.41;41.02;99051.56;4359856;32;34473;-92
2022/07/05 04:04:54;;;;;;;;;;;;;;;27.64;42.74;99049.97;4360448;32;35023;-89
2022/07/05 04:07:21;;;;;;;;;;;;;;;29.07;39.75;99056.28;4360017;32;34524;-93
2022/07/05 04:09:49;;;;;;;;;;;;;;;28.90;39.79;99042.28;4361350;32;35088;-95
2022/07/05 04:12:16;;;;;;;;;;;;;;;28.32;41.09;99044.12;4360688;32;34951;-92
2022/07/05 04:14:45;;;;;;;;;;;;;;;28.42;40.66;99047.97;4360667;32;34444;-92
2022/07/05 04:17:12;;;;;;;;;;;;;;;28.97;39.56;99038.25;4360931;32;33450;-91
2022/07/05 04:19:40;;;;;;;;;;;;;;;29.28;38.65;99037.12;4361406;32;34191;-94
2022/07/05 04:22:08;;;;;;;;;;;;;;;28.54;39.85;99036.53;4361195;32;35089;-89
2022/07/05 04:25:16;;;;;;;;;;;;;;;27.97;40.76;99043.63;4349487;32;35157;-96
2022/07/05 04:27:23;;;;;;;;;;;;;;;27.99;40.48;99042.56;4360349;32;33726;-89
2022/07/05 04:29:51;;;;;;;;;;;;;;;28.30;40.56;99043.38;4361313;32;34294;-89
2022/07/05 04:32:19;;;;;;;;;;;;;;;28.80;39.37;99028.69;4361346;32;35258;-89
2022/07/05 04:34:47;;;;;;;;;;;;;;;28.93;38.57;99029.59;4360790;32;34512;-89
2022/07/05 04:37:14;;;;;;;;;;;;;;;29.37;37.95;99023.19;4359787;32;33630;-91
2022/07/05 04:39:42;;;;;;;;;;;;;;;29.89;37.10;99018.78;4361194;32;34872;-93
2022/07/05 04:42:10;;;;;;;;;;;;;;;28.41;39.82;99024.91;4360725;32;34072;-89
2022/07/05 04:44:38;;;;;;;;;;;;;;;28.95;38.97;99026.84;4361147;32;33984;-91
2022/07/05 04:47:05;;;;;;;;;;;;;;;29.41;37.95;99022.00;4360720;32;34319;-93
2022/07/05 04:49:33;;;;;;;;;;;;;;;29.18;38.72;99017.34;4359627;32;35083;-95
2022/07/05 04:52:01;;;;;;;;;;;;;;;30.21;36.76;99024.63;4361075;32;35315;-94
2022/07/05 04:54:32;;;;;;;;;;;;;;;29.75;37.71;99022.44;4372121;32;35127;-92
2022/07/05 04:56:59;;;;;;;;;;;;;;;29.19;38.41;99019.91;4360134;32;34260;-91
2022/07/05 04:59:26;;;;;;;;;;;;;;;29.60;37.58;99012.78;4361415;32;33796;-92
2022/07/05 05:01:54;;;;;;;;;;;;;;;28.81;39.09;99017.03;4360468;32;33766;-92
2022/07/05 05:04:21;;;;;;;;;;;;;;;29.50;37.66;99021.38;4359006;32;34610;-95
2022/07/05 05:06:48;;;;;;;;;;;;;;;29.29;38.15;99021.03;4360786;32;33448;-95
2022/07/05 05:09:16;;;;;;;;;;;;;;;28.19;40.24;99013.84;4359333;32;34659;-93
2022/07/05 05:11:43;;;;;;;;;;;;;;;28.67;39.60;99011.72;4360520;32;34062;-92
2022/07/05 05:14:10;;;;;;;;;;;;;;;28.35;40.01;99012.78;4371989;32;34862;-95
2022/07/05 05:16:38;;;;;;;;;;;;;;;29.13;38.54;99008.78;4359269;32;33760;-91
2022/07/05 05:19:05;;;;;;;;;;;;;;;28.11;40.30;99009.84;4360501;32;34117;-96
2022/07/05 05:21:32;;;;;;;;;;;;;;;28.67;39.20;99006.41;4360473;32;35167;-92
2022/07/05 05:23:59;;;;;;;;;;;;;;;28.84;38.86;99004.38;4360538;32;34585;-94
2022/07/05 05:26:27;;;;;;;;;;;;;;;28.36;39.59;99008.31;4346660;32;33773;-94
2022/07/05 05:28:54;;;;;;;;;;;;;;;28.36;39.32;99008.31;4360546;32;33841;-94
2022/07/05 05:31:21;;;;;;;;;;;;;;;28.53;38.98;99016.16;4346995;32;35307;-93
2022/07/05 05:33:49;;;;;;;;;;;;;;;27.96;40.16;99018.78;4359357;32;34044;-90
2022/07/05 05:36:16;;;;;;;;;;;;;;;28.20;39.79;99020.91;4361658;32;34609;-96
2022/07/05 05:38:43;;;;;;;;;;;;;;;29.24;37.50;99016.94;4346793;32;33525;-92
2022/07/05 05:41:17;;;;;;;;;;;;;;;29.11;38.11;99024.06;4359990;32;35665;-91
2022/07/05 05:43:44;;;;;;;;;;;;;;;28.72;38.50;99014.97;4359162;32;33751;-96
2022/07/05 05:46:11;;;;;;;;;;;;;;;27.93;39.72;99021.62;4360720;32;34510;-94
2022/07/05 05:48:39;;;;;;;;;;;;;;;27.88;39.63;99023.69;4359504;32;33274;-91
2022/07/05 05:51:06;;;;;;;;;;;;;;;28.51;38.59;99030.53;4360425;32;33645;-92
2022/07/05 05:53:33;;;;;;;;;;;;;;;27.86;39.96;99036.28;4360468;32;33950;-91
2022/07/05 05:56:02;;;;;;;;;;;;;;;28.66;38.44;99037.56;4359792;32;34014;-96
2022/07/05 05:58:29;;;;;;;;;;;;;;;28.91;38.01;99036.84;4347139;32;32598;-94
2022/07/05 06:00:57;;;;;;;;;;;;;;;29.01;38.06;99037.97;4359019;32;34352;-90
2022/07/05 06:03:25;;;;;;;;;;;;;;;27.99;39.98;99039.03;4360397;32;33796;-95
2022/07/05 06:05:52;;;;;;;;;;;;;;;28.27;39.66;99041.75;4359685;32;33360;-94
2022/07/05 06:08:20;;;;;;;;;;;;;;;28.86;38.50;99052.28;4359431;32;34683;-91
2022/07/05 06:10:47;;;;;;;;;;;;;;;29.21;37.78;99046.50;4359662;32;34137;-92
2022/07/05 06:13:27;;;;;;;;;;;;;;;28.39;39.19;99044.62;4358528;32;34339;-94
2022/07/05 06:15:55;;;;;;;;;;;;;;;28.57;39.41;99041.66;4359931;32;34271;-89
2022/07/05 06:18:22;;;;;;;;;;;;;;;28.94;38.28;99041.09;4359580;32;34708;-91
2022/07/05 06:20:50;;;;;;;;;;;;;;;28.98;38.39;99035.53;4359730;32;34421;-90
2022/07/05 06:23:17;;;;;;;;;;;;;;;29.12;38.24;99039.09;4357508;32;34374;-91
2022/07/05 06:25:44;;;;;;;;;;;;;;;29.39;37.67;99036.41;4359659;32;33448;-91
2022/07/05 06:28:12;;;;;;;;;;;;;;;29.34;37.90;99039.41;4360494;32;34339;-92
2022/07/05 06:30:39;;;;;;;;;;;;;;;28.74;39.24;99034.41;4372667;32;33965;-90
2022/07/05 06:33:06;;;;;;;;;;;;;;;29.40;37.95;99044.34;4361800;32;34104;-95
2022/07/05 06:35:34;;;;;;;;;;;;;;;29.57;37.74;99038.75;4362123;32;33487;-89
2022/07/05 06:38:02;;;;;;;;;;;;;;;29.44;37.87;99037.00;4360769;32;35137;-91
2022/07/05 06:40:30;;;;;;;;;;;;;;;29.31;38.44;99039.59;4362505;32;35111;-94
2022/07/05 06:42:58;;;;;;;;;;;;;;;28.49;39.99;99030.63;4348549;32;34588;-91
2022/07/05 06:45:29;;;;;;;;;;;;;;;29.58;37.88;99031.59;4361647;32;33235;-89
2022/07/05 06:47:57;;;;;;;;;;;;;;;29.22;38.45;99037.53;4361731;32;34585;-88
2022/07/05 06:50:27;;;;;;;;;;;;;;;29.81;37.41;99030.00;4359325;32;34371;-90
2022/07/05 06:52:55;;;;;;;;;;;;;;;29.80;37.64;99023.81;4360220;32;35069;-91
2022/07/05 06:55:22;;;;;;;;;;;;;;;29.98;37.32;99019.03;4360510;32;33125;-88
2022/07/05 06:57:55;;;;;;;;;;;;;;;29.21;38.68;99023.34;4372687;32;33918;-88
2022/07/05 07:00:40;;;;;;;;;;;;;;;29.69;38.07;99020.16;4356729;32;34434;-94
2022/07/05 07:03:27;;;;;;;;;;;;;;;29.04;38.75;99026.25;4360742;32;34274;-89
2022/07/05 07:06:15;;;;;;;;;;;;;;;28.99;38.91;99031.91;4361438;32;32671;-90
2022/07/05 07:11:29;;;;;;;;;;;;;;;29.62;37.74;99016.19;4352819;32;34648;-95
2022/07/05 07:13:56;;;;;;;;;;;;;;;29.65;38.37;99024.87;4372904;32;35076;-92
2022/07/05 07:16:24;;;;;;;;;;;;;;;29.81;37.90;99024.66;4372532;32;34295;-93
2022/07/05 07:18:51;;;;;;;;;;;;;;;29.86;37.84;99025.22;4358157;32;34046;-93
2022/07/05 07:21:39;;;;;;;;;;;;;;;29.46;38.39;99027.88;4354072;32;34542;-92
2022/07/05 07:24:06;;;;;;;;;;;;;;;29.54;38.24;99027.38;4360036;32;34335;-89
2022/07/05 07:27:02;;;;;;;;;;;;;;;29.34;38.13;99018.03;4363306;32;32823;-91
2022/07/05 07:29:21;;;;;;;;;;;;;;;29.31;38.04;99018.22;4362771;32;34903;-86
2022/07/05 07:31:49;;;;;;;;;;;;;;;28.64;39.00;99033.25;4361174;32;34140;-94
2022/07/05 07:34:16;;;;;;;;;;;;;;;29.90;37.00;99031.22;4360850;32;34479;-94
2022/07/05 07:36:43;;;;;;;;;;;;;;;29.26;38.30;99025.72;4360521;32;33465;-88
2022/07/05 07:39:11;;;;;;;;;;;;;;;29.18;38.80;99020.03;4362976;32;35188;-87
2022/07/05 07:41:38;;;;;;;;;;;;;;;28.50;39.92;99021.69;4361047;32;34913;-89
2022/07/05 07:44:06;;;;;;;;;;;;;;;29.13;38.63;99011.44;4362568;32;35285;-88
2022/07/05 07:46:33;;;;;;;;;;;;;;;29.05;38.63;99033.28;4358084;32;34442;-90
2022/07/05 07:49:00;;;;;;;;;;;;;;;29.31;38.76;99027.09;4362897;32;33649;-89
2022/07/05 07:51:29;;;;;;;;;;;;;;;28.59;40.09;99031.75;4358507;32;35341;-89
2022/07/05 07:53:56;;;;;;;;;;;;;;;28.97;39.65;99025.75;4355657;32;35395;-89
2022/07/05 07:56:29;;;;;;;;;;;;;;;28.47;40.81;99032.53;4358769;32;33724;-90
2022/07/05 07:58:56;;;;;;;;;;;;;;;28.84;40.43;99030.19;4353650;32;34290;-89
2022/07/05 08:01:24;;;;;;;;;;;;;;;29.22;39.25;99021.53;4357639;32;34911;-92
2022/07/05 08:03:51;;;;;;;;;;;;;;;29.30;39.56;99019.19;4361118;32;35637;-92
2022/07/05 08:06:18;;;;;;;;;;;;;;;29.12;39.41;99026.59;4373241;32;33516;-93
2022/07/05 08:08:47;;;;;;;;;;;;;;;28.30;41.15;99024.72;4357213;32;33233;-91
2022/07/05 08:11:14;;;;;;;;;;;;;;;28.17;41.87;99021.94;4345078;33;33307;-89
2022/07/05 08:13:42;;;;;;;;;;;;;;;29.03;40.10;99027.22;4344687;33;34444;-88
2022/07/05 08:16:09;;;;;;;;;;;;;;;28.82;40.44;99021.41;4345227;33;33674;-88
2022/07/05 08:21:31;;;;;;;;;;;;;;;29.29;39.91;99030.84;4359431;32;35169;-91
2022/07/05 08:23:59;;;;;;;;;;;;;;;28.02;42.26;99037.06;4359380;32;34181;-93
2022/07/05 08:26:27;;;;;;;;;;;;;;;28.72;41.38;99034.50;4359301;32;32886;-91
2022/07/05 08:28:55;;;;;;;;;;;;;;;28.36;42.08;99040.31;4359470;32;34367;-91
2022/07/05 08:31:38;;;;;;;;;;;;;;;28.98;40.98;99034.66;4345583;33;34641;-90
2022/07/05 08:34:05;;;;;;;;;;;;;;;29.54;40.13;99036.25;4356957;32;34890;-90
2022/07/05 08:36:33;;;;;;;;;;;;;;;29.33;40.15;99027.88;4356866;32;33159;-89
2022/07/05 08:39:00;;;;;;;;;;;;;;;30.05;39.67;99041.69;4344149;33;31967;-90
2022/07/05 08:41:27;;;;;;;;;;;;;;;29.44;40.19;99035.16;4345918;32;34554;-86
2022/07/05 08:43:56;;;;;;;;;;;;;;;29.63;39.30;99045.50;4360899;32;34297;-90
2022/07/05 08:46:23;;;;;;;;;;;;;;;29.19;40.33;99040.41;4347073;32;33542;-85
2022/07/05 08:48:51;;;;;;;;;;;;;;;29.64;39.43;99046.34;4360962;32;34372;-90
2022/07/05 08:51:23;;;;;;;;;;;;;;;29.01;40.69;99040.66;4358696;32;33945;-87
2022/07/05 08:53:51;;;;;;;;;;;;;;;28.72;41.05;99044.31;4360249;32;34160;-88
2022/07/05 08:56:19;;;;;;;;;;;;;;;28.96;40.64;99045.41;4346673;32;32241;-90
2022/07/05 08:59:05;;;;;;;;;;;;;;;28.13;42.29;99045.25;4359352;32;34215;-93
2022/07/05 09:01:34;;;;;;;;;;;;;;;28.99;41.22;99052.41;4360581;32;34368;-91
2022/07/05 09:04:04;;;;;;;;;;;;;;;28.97;41.33;99051.59;4347172;32;34263;-89
2022/07/05 09:06:36;;;;;;;;;;;;;;;28.99;41.34;99047.06;4346868;32;33564;-89
2022/07/05 09:09:06;;;;;;;;;;;;;;;28.27;42.88;99052.41;4359599;32;34166;-93
2022/07/05 09:11:38;;;;;;;;;;;;;;;28.34;43.21;99048.41;4358821;32;33407;-89
2022/07/05 09:14:06;;;;;;;;;;;;;;;28.03;43.74;99044.09;4359119;32;34601;-89
2022/07/05 09:16:54;;;;;;;;;;;;;;;28.36;43.14;99048.31;4359096;32;33199;-91
2022/07/05 09:19:22;;;;;;;;;;;;;;;28.90;42.22;99043.13;4359802;32;34946;-94
2022/07/05 09:21:54;;;;;;;;;;;;;;;29.35;41.25;99035.75;4359673;32;34265;-88
2022/07/05 09:24:22;;;;;;;;;;;;;;;28.62;42.59;99036.88;4359572;32;34594;-91
2022/07/05 09:26:52;;;;;;;;;;;;;;;27.93;43.99;99040.28;4360490;32;34204;-95
2022/07/05 09:29:20;;;;;;;;;;;;;;;28.34;43.57;99045.75;4359774;32;34049;-95
2022/07/05 09:32:07;;;;;;;;;;;;;;;28.04;43.85;99053.81;4359333;32;34233;-90
2022/07/05 09:34:35;;;;;;;;;;;;;;;29.19;41.75;99051.09;4356648;32;35349;-88
2022/07/05 09:37:03;;;;;;;;;;;;;;;28.80;41.68;99042.03;4360045;32;34024;-90
2022/07/05 09:39:34;;;;;;;;;;;;;;;28.65;41.82;99051.00;4359817;32;33984;-91
2022/07/05 09:42:19;;;;;;;;;;;;;;;28.08;42.99;99042.03;4360399;32;34517;-90
2022/07/05 09:44:49;;;;;;;;;;;;;;;27.41;44.68;99041.53;4360526;32;34679;-91
2022/07/05 09:47:17;;;;;;;;;;;;;;;27.32;44.84;99057.19;4359959;32;33419;-91
2022/07/05 09:49:46;;;;;;;;;;;;;;;26.83;46.05;99075.91;4359981;32;34298;-85
2022/07/05 09:52:34;;;;;;;;;;;;;;;26.76;46.38;99082.50;4348670;32;34280;-87
2022/07/05 09:55:05;;;;;;;;;;;;;;;26.81;49.40;99101.72;4362351;32;34896;-88
2022/07/05 09:57:33;;;;;;;;;;;;;;;26.48;52.81;99099.97;4351156;32;34271;-87
2022/07/05 10:00:01;;;;;;;;;;;;;;;25.89;54.01;99099.44;4358518;32;34338;-86
2022/07/05 10:02:36;;;;;;;;;;;;;;;26.08;54.70;99106.47;4361093;32;34412;-89
2022/07/05 10:05:09;;;;;;;;;;;;;;;25.99;55.49;99121.09;4360169;32;34969;-87
2022/07/05 10:07:38;;;;;;;;;;;;;;;25.74;54.88;99134.69;4361127;32;33220;-91
2022/07/05 10:10:06;;;;;;;;;;;;;;;25.19;57.71;99124.09;4372721;32;33813;-91
2022/07/05 10:12:33;;;;;;;;;;;;;;;26.29;55.29;99123.97;4360700;32;33963;-96
2022/07/05 10:15:01;;;;;;;;;;;;;;;25.70;57.14;99123.38;4360325;32;34203;-91
2022/07/05 10:17:29;;;;;;;;;;;;;;;26.05;55.54;99126.06;4360739;32;34439;-90
2022/07/05 10:20:05;;;;;;;;;;;;;;;25.27;57.12;99121.09;4360320;32;34121;-90
2022/07/05 10:22:33;;;;;;;;;;;;;;;25.96;56.01;99124.75;4360335;32;34527;-90
2022/07/05 10:25:00;;;;;;;;;;;;;;;25.41;58.84;99137.22;4361542;32;34475;-91
2022/07/05 10:27:27;;;;;;;;;;;;;;;25.83;57.00;99141.38;4359947;32;33357;-93
2022/07/05 10:29:55;;;;;;;;;;;;;;;26.32;55.50;99138.88;4360859;32;33650;-93
2022/07/05 10:32:23;;;;;;;;;;;;;;;27.14;52.99;99136.28;4361416;32;35059;-96
2022/07/05 10:34:51;;;;;;;;;;;;;;;26.71;54.21;99129.75;4362471;32;34241;-92
2022/07/05 10:37:25;;;;;;;;;;;;;;;26.13;54.62;99139.81;4360873;32;33209;-93
2022/07/05 10:39:54;;;;;;;;;;;;;;;26.07;55.60;99140.16;4365444;32;34173;-92
2022/07/05 10:42:22;;;;;;;;;;;;;;;26.06;55.25;99142.84;4362634;32;33815;-94
2022/07/05 10:44:50;;;;;;;;;;;;;;;26.61;54.57;99151.53;4361653;32;34411;-94
2022/07/05 10:47:19;;;;;;;;;;;;;;;26.56;54.71;99148.25;4361318;32;33305;-96
2022/07/05 10:49:58;;;;;;;;;;;;;;;26.32;54.98;99144.19;4361821;32;34422;-92
2022/07/05 10:52:26;;;;;;;;;;;;;;;25.15;56.97;99147.25;4362561;32;32932;-96
2022/07/05 10:55:12;;;;;;;;;;;;;;;24.68;58.61;99160.91;4348620;32;32725;-96
2022/07/05 10:57:40;;;;;;;;;;;;;;;24.66;60.28;99151.28;4332790;32;959571;-96
2022/07/05 11:00:08;;;;;;;;;;;;;;;25.51;57.27;99156.22;4361830;32;33893;-95
2022/07/05 11:02:35;;;;;;;;;;;;;;;26.24;55.96;99163.19;4360621;32;33800;-95
2022/07/05 11:05:03;;;;;;;;;;;;;;;25.58;56.45;99169.13;4373818;32;34805;-96
2022/07/05 11:07:50;;;;;;;;;;;;;;;26.17;55.24;99167.94;4350942;32;32298;-96
2022/07/05 11:10:17;;;;;;;;;;;;;;;26.43;55.28;99173.72;4363320;32;34213;-91
2022/07/05 11:12:45;;;;;;;;;;;;;;;26.64;54.94;99183.28;4362482;32;34399;-89
2022/07/05 11:15:13;;;;;;;;;;;;;;;26.19;55.60;99182.03;4362222;32;35163;-90
2022/07/05 11:17:43;;;;;;;;;;;;;;;26.39;55.44;99177.47;4362920;32;33700;-92
2022/07/05 11:20:26;;;;;;;;;;;;;;;25.30;57.99;99180.19;4364843;32;34568;-96
2022/07/05 11:23:01;;;;;;;;;;;;;;;25.49;57.35;99177.50;4365859;32;34216;-92
2022/07/05 11:25:33;;;;;;;;;;;;;;;25.75;57.59;99170.06;4365783;32;34748;-92
2022/07/05 11:28:05;;;;;;;;;;;;;;;26.09;56.32;99156.84;4364148;32;33752;-95
2022/07/05 11:31:04;;;;;;;;;;;;;;;25.32;57.69;99140.31;4381536;32;33410;-92
2022/07/05 11:33:43;;;;;;;;;;;;;;;26.13;55.79;99134.50;4366636;32;32790;-92
2022/07/05 11:36:25;;;;;;;;;;;;;;;26.36;55.54;99130.63;4359861;32;34303;-95
2022/07/05 11:39:12;;;;;;;;;;;;;;;25.82;56.71;99129.03;4360806;32;33479;-93
2022/07/05 11:41:42;;;;;;;;;;;;;;;26.25;55.29;99132.16;4362416;32;34965;-91
2022/07/05 11:44:10;;;;;;;;;;;;;;;25.61;56.88;99131.81;4350047;32;33717;-92
2022/07/05 11:46:38;;;;;;;;;;;;;;;26.41;54.30;99133.09;4348622;32;33865;-92
2022/07/05 11:49:20;;;;;;;;;;;;;;;25.87;56.45;99142.94;4349037;32;33609;-93
2022/07/05 11:51:58;;;;;;;;;;;;;;;25.88;55.82;99145.53;4361183;32;35386;-91
2022/07/05 11:54:27;;;;;;;;;;;;;;;26.00;55.66;99146.72;4362528;32;34306;-93
2022/07/05 11:56:54;;;;;;;;;;;;;;;26.29;54.87;99139.91;4361236;32;35119;-93
2022/07/05 11:59:22;;;;;;;;;;;;;;;26.13;55.70;99128.31;4360169;32;33521;-91
2022/07/05 12:01:50;;;;;;;;;;;;;;;25.29;57.80;99119.22;4360766;32;34359;-96
2022/07/05 12:04:25;;;;;;;;;;;;;;;26.67;54.60;99115.78;4363146;32;34383;-95
2022/07/05 12:06:52;;;;;;;;;;;;;;;27.04;53.97;99111.06;4373290;32;33946;-94
2022/07/05 12:09:22;;;;;;;;;;;;;;;26.54;54.84;99106.72;4361265;32;33725;-93
2022/07/05 12:14:49;;;;;;;;;;;;;;;26.45;54.33;99100.09;4361453;32;35180;-93
2022/07/05 12:17:18;;;;;;;;;;;;;;;27.04;54.18;99114.59;4347934;32;33726;-93
2022/07/05 12:20:04;;;;;;;;;;;;;;;27.44;53.17;99111.53;4366637;32;33459;-94
2022/07/05 12:22:32;;;;;;;;;;;;;;;27.79;51.86;99093.53;4361545;32;33691;-94
2022/07/05 12:25:01;;;;;;;;;;;;;;;27.12;53.67;99104.44;4359829;32;34388;-93
2022/07/05 12:27:29;;;;;;;;;;;;;;;26.71;55.29;99124.41;4360447;32;34008;-94
2022/07/05 12:29:57;;;;;;;;;;;;;;;26.30;55.20;99122.16;4359424;32;34019;-96
2022/07/05 12:32:24;;;;;;;;;;;;;;;26.86;54.35;99113.84;4359718;32;34782;-96
2022/07/05 12:34:51;;;;;;;;;;;;;;;27.45;53.70;99116.75;4360842;32;34599;-96
2022/07/05 12:37:22;;;;;;;;;;;;;;;27.80;52.13;99108.56;4361254;32;33739;-95
2022/07/05 12:39:50;;;;;;;;;;;;;;;27.04;53.64;99122.56;4359946;32;33432;-95
2022/07/05 12:42:33;;;;;;;;;;;;;;;27.08;53.88;99123.25;4361700;32;33489;-96
2022/07/05 12:45:16;;;;;;;;;;;;;;;27.89;51.25;99108.03;4359559;32;33642;-95
2022/07/05 12:47:55;;;;;;;;;;;;;;;27.43;52.47;99102.69;4361054;32;34171;-93
2022/07/05 12:50:29;;;;;;;;;;;;;;;27.59;52.04;99103.53;4360759;32;34381;-91
2022/07/05 12:58:54;;;;;;;;;;;;;;;27.27;52.71;99080.53;4360642;32;34965;-90
2022/07/05 13:01:29;;;;;;;;;;;;;;;27.41;52.52;99077.94;4360685;32;34406;-92
2022/07/05 13:03:58;;;;;;;;;;;;;;;27.62;52.13;99071.37;4359968;32;34930;-92
2022/07/05 13:06:40;;;;;;;;;;;;;;;27.30;53.35;99072.38;4359202;32;33149;-91
2022/07/05 13:09:08;;;;;;;;;;;;;;;26.38;56.12;99080.94;4360747;32;35324;-92
2022/07/05 13:11:35;;;;;;;;;;;;;;;27.09;53.87;99067.31;4360286;32;33772;-93
2022/07/05 13:14:03;;;;;;;;;;;;;;;26.52;55.39;99071.37;4360668;32;34098;-93